createdAt,value
2022-08-05T00:00:34.195Z,93.20
2022-08-05T00:03:15.646Z,93.40
2022-08-05T00:06:06.449Z,92.20
2022-08-05T00:08:35.450Z,90.90
2022-08-05T00:11:20.317Z,91.70
2022-08-05T00:13:52.935Z,92.20
2022-08-05T00:16:36.452Z,89.80
2022-08-05T00:19:08.492Z,91.90
2022-08-05T00:21:36.207Z,92.70
2022-08-05T00:24:10.391Z,93.60
2022-08-05T00:26:39.158Z,90.90
2022-08-05T00:29:14.167Z,90.80
2022-08-05T00:32:10.186Z,94.10
2022-08-05T00:34:54.967Z,94.00
2022-08-05T00:37:16.586Z,93.00
2022-08-05T00:39:57.391Z,92.00
2022-08-05T00:42:35.562Z,92.70
2022-08-05T00:45:08.560Z,92.60
2022-08-05T00:47:56.434Z,93.40
2022-08-05T00:50:25.323Z,92.00
2022-08-05T00:52:54.989Z,94.30
2022-08-05T00:55:42.103Z,94.00
2022-08-05T00:58:14.922Z,93.60
2022-08-05T01:00:45.940Z,91.50
2022-08-05T01:03:23.003Z,92.60
2022-08-05T01:05:54.481Z,93.60
2022-08-05T01:08:40.576Z,92.20
2022-08-05T01:11:22.580Z,92.30
2022-08-05T01:14:15.416Z,90.70
2022-08-05T01:16:54.295Z,92.00
2022-08-05T01:20:00.975Z,93.70
2022-08-05T01:22:32.091Z,93.20
2022-08-05T01:25:19.491Z,93.00
2022-08-05T01:28:14.541Z,92.90
2022-08-05T01:30:53.863Z,93.50
2022-08-05T01:33:35.579Z,91.70
2022-08-05T01:36:13.074Z,89.70
2022-08-05T01:38:48.566Z,93.30
2022-08-05T01:41:21.119Z,95.20
2022-08-05T01:43:51.637Z,95.00
2022-08-05T01:46:41.968Z,94.70
2022-08-05T01:49:22.965Z,91.10
2022-08-05T01:51:59.074Z,93.70
2022-08-05T01:54:46.294Z,94.60
2022-08-05T01:58:09.846Z,94.00
2022-08-05T02:00:12.395Z,93.30
2022-08-05T02:02:51.094Z,91.00
2022-08-05T02:05:25.424Z,93.10
2022-08-05T02:08:01.003Z,93.00
2022-08-05T02:10:35.321Z,94.10
2022-08-05T02:13:16.114Z,93.90
2022-08-05T02:16:01.839Z,91.50
2022-08-05T02:18:48.622Z,93.10
2022-08-05T02:21:19.875Z,94.80
2022-08-05T02:23:52.441Z,96.00
2022-08-05T02:26:26.520Z,96.10
2022-08-05T02:28:56.202Z,94.10
2022-08-05T02:31:34.570Z,94.70
2022-08-05T02:34:10.129Z,91.30
2022-08-05T02:36:42.769Z,90.80
2022-08-05T02:39:11.187Z,93.30
2022-08-05T02:41:57.491Z,93.50
2022-08-05T02:44:30.605Z,93.60
2022-08-05T02:47:00.898Z,93.90
2022-08-05T02:49:36.762Z,93.40
2022-08-05T02:52:29.589Z,91.70
2022-08-05T02:55:01.855Z,93.20
2022-08-05T02:58:10.176Z,93.40
2022-08-05T03:00:22.983Z,92.50
2022-08-05T03:02:54.027Z,93.40
2022-08-05T03:05:21.723Z,92.60
2022-08-05T03:08:11.281Z,92.20
2022-08-05T03:10:39.047Z,92.50
2022-08-05T03:13:17.107Z,92.90
2022-08-05T03:15:46.304Z,90.30
2022-08-05T03:18:14.168Z,89.90
2022-08-05T03:20:48.962Z,92.00
2022-08-05T03:23:18.153Z,92.60
2022-08-05T03:26:04.951Z,93.50
2022-08-05T03:28:38.976Z,93.80
2022-08-05T03:31:07.578Z,95.20
2022-08-05T03:33:51.003Z,96.60
2022-08-05T03:36:30.126Z,94.40
2022-08-05T03:38:58.496Z,93.70
2022-08-05T03:41:26.544Z,96.10
2022-08-05T03:44:10.998Z,93.40
2022-08-05T03:46:39.397Z,95.00
2022-08-05T03:49:06.935Z,94.70
2022-08-05T03:52:37.774Z,93.30
2022-08-05T03:55:34.153Z,93.10
2022-08-05T03:57:46.649Z,93.00
2022-08-05T04:00:16.445Z,94.50
2022-08-05T04:02:57.992Z,93.20
2022-08-05T04:05:33.704Z,91.10
2022-08-05T04:08:30.106Z,93.10
2022-08-05T04:10:57.039Z,92.50
2022-08-05T04:13:25.952Z,91.50
2022-08-05T04:16:14.813Z,90.20
2022-08-05T04:18:45.066Z,88.70
2022-08-05T04:21:45.756Z,90.20
2022-08-05T04:24:08.849Z,90.50
2022-08-05T04:26:36.644Z,92.10
2022-08-05T04:29:07.486Z,93.20
2022-08-05T04:31:38.601Z,94.50
2022-08-05T04:34:18.329Z,93.80
2022-08-05T04:36:49.651Z,93.80
2022-08-05T04:39:21.730Z,93.50
2022-08-05T04:41:51.176Z,92.70
2022-08-05T04:44:21.581Z,91.50
2022-08-05T04:46:59.622Z,91.40
2022-08-05T04:49:39.169Z,90.80
2022-08-05T04:52:18.570Z,90.50
2022-08-05T04:54:46.299Z,91.20
2022-08-05T04:57:13.909Z,91.20
2022-08-05T04:59:42.498Z,88.30
2022-08-05T05:02:37.470Z,91.60
2022-08-05T05:05:16.763Z,91.10
2022-08-05T05:08:01.674Z,90.70
2022-08-05T05:10:33.317Z,87.70
2022-08-05T05:13:03.950Z,90.40
2022-08-05T05:16:00.479Z,91.40
2022-08-05T05:18:31.195Z,90.90
2022-08-05T05:21:03.243Z,90.00
2022-08-05T05:24:02.098Z,90.70
2022-08-05T05:26:28.737Z,90.50
2022-08-05T05:29:00.455Z,90.70
2022-08-05T05:31:35.802Z,90.90
2022-08-05T05:33:59.193Z,91.30
2022-08-05T05:36:28.640Z,90.80
2022-08-05T05:38:58.053Z,89.40
2022-08-05T05:41:26.634Z,89.40
2022-08-05T05:44:35.938Z,89.30
2022-08-05T05:46:56.504Z,88.90
2022-08-05T05:49:26.601Z,89.30
2022-08-05T05:51:57.195Z,89.60
2022-08-05T05:54:50.788Z,87.50
2022-08-05T05:57:13.750Z,87.50
2022-08-05T05:59:47.363Z,88.00
2022-08-05T06:02:16.540Z,88.10
2022-08-05T06:04:49.229Z,87.50
2022-08-05T06:07:22.425Z,86.50
2022-08-05T06:10:01.426Z,86.30
2022-08-05T06:12:35.874Z,87.00
2022-08-05T06:15:13.636Z,85.40
2022-08-05T06:17:52.598Z,86.70
2022-08-05T06:20:21.650Z,85.70
2022-08-05T06:22:49.606Z,84.10
2022-08-05T06:25:59.388Z,84.60
2022-08-05T06:28:11.203Z,82.20
2022-08-05T06:30:47.022Z,82.10
2022-08-05T06:33:19.405Z,80.20
2022-08-05T06:36:06.823Z,80.10
2022-08-05T06:38:37.144Z,79.10
2022-08-05T06:41:07.944Z,78.40
2022-08-05T06:43:59.115Z,77.80
2022-08-05T06:46:29.737Z,78.80
2022-08-05T06:49:00.758Z,77.30
2022-08-05T06:51:31.001Z,78.90
2022-08-05T06:56:54.858Z,73.50
2022-08-05T06:59:38.520Z,75.30
2022-08-05T07:02:10.006Z,77.20
2022-08-05T07:04:37.360Z,76.20
2022-08-05T07:07:07.880Z,76.40
2022-08-05T07:09:37.346Z,76.20
2022-08-05T07:12:08.988Z,75.80
2022-08-05T07:14:57.275Z,76.40
2022-08-05T07:18:00.821Z,76.80
2022-08-05T07:23:00.946Z,76.20
2022-08-05T07:26:04.360Z,76.30
2022-08-05T07:28:33.752Z,76.60
2022-08-05T07:31:01.359Z,75.80
2022-08-05T07:33:37.209Z,74.50
2022-08-05T07:36:19.872Z,75.00
2022-08-05T07:38:49.405Z,73.70
2022-08-05T07:42:07.698Z,74.30
2022-08-05T07:44:18.718Z,72.80
2022-08-05T07:46:55.815Z,71.40
2022-08-05T07:49:23.307Z,71.10
2022-08-05T07:51:54.726Z,72.40
2022-08-05T07:54:33.584Z,69.60
2022-08-05T07:57:41.929Z,69.80
2022-08-05T08:00:11.646Z,68.30
2022-08-05T08:03:13.885Z,66.80
2022-08-05T08:05:29.599Z,67.90
2022-08-05T08:08:19.883Z,66.80
2022-08-05T08:10:48.920Z,66.00
2022-08-05T08:13:21.854Z,64.60
2022-08-05T08:16:50.477Z,64.20
2022-08-05T08:18:50.188Z,64.60
2022-08-05T08:21:18.312Z,63.10
2022-08-05T08:24:03.356Z,62.80
2022-08-05T08:26:46.803Z,64.70
2022-08-05T08:30:03.620Z,65.60
2022-08-05T08:32:07.392Z,64.00
2022-08-05T08:34:38.761Z,64.80
2022-08-05T08:37:06.266Z,62.50
2022-08-05T08:39:37.348Z,62.00
2022-08-05T08:42:10.835Z,62.90
2022-08-05T08:45:18.096Z,62.70
2022-08-05T08:48:10.526Z,61.80
2022-08-05T08:51:03.918Z,61.90
2022-08-05T08:53:31.234Z,60.00
2022-08-05T08:56:03.405Z,59.80
2022-08-05T08:58:37.593Z,60.40
2022-08-05T09:01:15.762Z,57.90
2022-08-05T09:03:54.402Z,58.00
2022-08-05T09:06:30.071Z,58.10
2022-08-05T09:09:01.953Z,56.20
2022-08-05T09:11:53.064Z,55.00
2022-08-05T09:14:56.691Z,55.50
2022-08-05T09:17:16.070Z,57.60
2022-08-05T09:20:02.821Z,55.50
2022-08-05T09:23:18.625Z,54.70
2022-08-05T09:26:02.122Z,53.50
2022-08-05T09:28:35.487Z,52.60
2022-08-05T09:31:22.339Z,53.20
2022-08-05T09:34:01.449Z,53.90
2022-08-05T09:36:59.694Z,55.40
2022-08-05T09:39:44.965Z,52.50
2022-08-05T09:42:23.550Z,52.70
2022-08-05T09:45:17.281Z,53.20
2022-08-05T09:47:55.089Z,52.50
2022-08-05T09:50:44.252Z,52.30
2022-08-05T09:53:22.847Z,51.80
2022-08-05T09:56:03.713Z,50.40
2022-08-05T09:58:42.044Z,51.20
2022-08-05T10:01:15.714Z,53.30
2022-08-05T10:04:10.439Z,50.90
2022-08-05T10:07:01.417Z,50.70
2022-08-05T10:09:30.263Z,48.90
2022-08-05T10:12:30.238Z,48.10
2022-08-05T10:15:41.950Z,49.70
2022-08-05T10:18:17.344Z,48.30
2022-08-05T10:20:50.351Z,50.00
2022-08-05T10:23:55.276Z,49.10
2022-08-05T10:26:15.138Z,50.50
2022-08-05T10:28:45.024Z,50.60
2022-08-05T10:33:01.486Z,49.10
2022-08-05T10:34:04.061Z,48.70
2022-08-05T10:36:38.006Z,48.80
2022-08-05T10:39:59.259Z,47.30
2022-08-05T10:42:34.105Z,47.60
2022-08-05T10:45:21.206Z,46.40
2022-08-05T10:48:29.779Z,49.70
2022-08-05T10:51:22.295Z,46.40
2022-08-05T10:53:56.297Z,47.30
2022-08-05T10:56:36.754Z,46.90
2022-08-05T11:00:02.127Z,48.20
2022-08-05T11:02:14.658Z,47.30
2022-08-05T11:05:10.966Z,47.70
2022-08-05T11:08:37.349Z,45.10
2022-08-05T11:11:16.690Z,45.50
2022-08-05T11:13:54.790Z,46.70
2022-08-05T11:16:33.729Z,46.00
2022-08-05T11:20:17.151Z,45.20
2022-08-05T11:22:42.397Z,45.50
2022-08-05T11:26:06.253Z,43.80
2022-08-05T11:28:35.879Z,44.20
2022-08-05T11:31:06.594Z,44.60
2022-08-05T11:33:46.072Z,44.40
2022-08-05T11:36:34.328Z,45.60
2022-08-05T11:39:09.370Z,44.40
2022-08-05T11:42:00.939Z,45.90
2022-08-05T11:44:52.865Z,46.00
2022-08-05T11:47:48.795Z,46.70
2022-08-05T11:50:14.466Z,45.20
2022-08-05T11:52:43.967Z,45.80
2022-08-05T11:55:15.658Z,46.20
2022-08-05T11:58:09.111Z,46.40
2022-08-05T12:00:37.796Z,47.60
2022-08-05T12:03:28.655Z,48.70
2022-08-05T12:06:05.984Z,48.50
2022-08-05T12:08:49.809Z,47.50
2022-08-05T12:11:20.740Z,48.70
2022-08-05T12:14:04.328Z,48.50
2022-08-05T12:16:35.275Z,48.10
2022-08-05T12:20:25.468Z,47.20
2022-08-05T12:22:09.560Z,47.80
2022-08-05T12:24:43.738Z,47.70
2022-08-05T12:27:33.121Z,49.00
2022-08-05T12:30:15.584Z,48.00
2022-08-05T12:32:53.950Z,49.80
2022-08-05T12:35:39.739Z,49.00
2022-08-05T12:38:08.366Z,49.60
2022-08-05T12:40:39.229Z,49.80
2022-08-05T12:43:21.057Z,49.60
2022-08-05T12:45:56.382Z,49.80
2022-08-05T12:48:32.245Z,49.30
2022-08-05T12:52:10.625Z,49.70
2022-08-05T12:54:14.845Z,49.80
2022-08-05T12:56:51.014Z,49.20
2022-08-05T12:59:27.299Z,50.10
2022-08-05T13:02:08.393Z,49.10
2022-08-05T13:04:52.324Z,49.00
2022-08-05T13:07:57.323Z,49.70
2022-08-05T13:10:19.989Z,49.00
2022-08-05T13:12:51.085Z,49.30
2022-08-05T13:15:41.679Z,49.60
2022-08-05T13:18:20.138Z,49.50
2022-08-05T13:20:49.810Z,49.30
2022-08-05T13:23:22.757Z,49.60
2022-08-05T13:25:58.929Z,48.60
2022-08-05T13:28:29.086Z,48.70
2022-08-05T13:30:59.708Z,48.20
2022-08-05T13:34:23.332Z,47.90
2022-08-05T13:36:18.739Z,45.90
2022-08-05T13:38:46.240Z,47.20
2022-08-05T13:41:19.655Z,46.70
2022-08-05T13:43:54.538Z,46.70
2022-08-05T13:46:44.069Z,46.50
2022-08-05T13:49:12.869Z,45.30
2022-08-05T13:51:46.362Z,43.60
2022-08-05T13:54:16.520Z,44.80
2022-08-05T13:56:51.505Z,44.30
2022-08-05T13:59:30.801Z,44.50
2022-08-05T14:02:00.628Z,43.70
2022-08-05T14:04:49.859Z,44.40
2022-08-05T14:07:59.535Z,43.50
2022-08-05T14:10:28.467Z,42.80
2022-08-05T14:13:00.731Z,42.50
2022-08-05T14:16:07.404Z,41.40
2022-08-05T14:18:23.999Z,42.40
2022-08-05T14:20:54.868Z,42.10
2022-08-05T14:23:25.771Z,43.00
2022-08-05T14:25:58.785Z,43.00
2022-08-05T14:28:28.920Z,42.60
2022-08-05T14:31:01.391Z,43.10
2022-08-05T14:33:56.310Z,43.40
2022-08-05T14:36:21.241Z,42.70
2022-08-05T14:38:49.485Z,42.60
2022-08-05T14:41:17.769Z,42.20
2022-08-05T14:44:02.503Z,42.70
2022-08-05T14:46:34.990Z,43.20
2022-08-05T14:49:07.134Z,42.70
2022-08-05T14:51:38.535Z,42.70
2022-08-05T14:54:26.929Z,43.50
2022-08-05T14:57:00.312Z,43.90
2022-08-05T14:59:35.679Z,44.00
2022-08-05T15:02:14.977Z,43.80
2022-08-05T15:04:44.963Z,43.50
2022-08-05T15:08:10.633Z,44.40
2022-08-05T15:10:05.253Z,44.40
2022-08-05T15:12:59.800Z,43.00
2022-08-05T15:15:55.283Z,43.50
2022-08-05T15:18:15.399Z,43.50
2022-08-05T15:20:44.695Z,42.60
2022-08-05T15:23:13.782Z,43.00
2022-08-05T15:25:52.812Z,43.10
2022-08-05T15:28:27.767Z,42.70
2022-08-05T15:30:56.118Z,42.60
2022-08-05T15:34:05.540Z,42.20
2022-08-05T15:36:17.329Z,42.40
2022-08-05T15:41:00.836Z,42.30
2022-08-05T15:41:56.426Z,43.00
2022-08-05T15:44:28.029Z,42.60
2022-08-05T15:46:59.745Z,42.30
2022-08-05T15:49:52.021Z,42.70
2022-08-05T15:52:28.977Z,42.30
2022-08-05T15:54:57.354Z,42.50
2022-08-05T15:57:25.048Z,42.30
2022-08-05T16:00:02.456Z,42.90
2022-08-05T16:02:33.145Z,42.10
2022-08-05T16:05:01.167Z,42.10
2022-08-05T16:07:29.633Z,42.30
2022-08-05T16:09:57.313Z,42.00
2022-08-05T16:12:24.853Z,42.40
2022-08-05T16:14:52.613Z,42.00
2022-08-05T16:17:20.146Z,42.00
2022-08-05T16:20:03.584Z,41.90
2022-08-05T16:22:35.065Z,42.70
2022-08-05T16:25:09.405Z,42.30
2022-08-05T16:28:00.362Z,42.20
2022-08-05T16:30:28.897Z,42.10
2022-08-05T16:32:58.153Z,41.70
2022-08-05T16:35:28.570Z,42.70
2022-08-05T16:38:02.533Z,42.00
2022-08-05T16:40:52.115Z,41.50
2022-08-05T16:43:25.046Z,41.30
2022-08-05T16:46:07.590Z,41.40
2022-08-05T16:48:39.103Z,40.80
2022-08-05T16:51:10.634Z,41.80
2022-08-05T16:54:05.897Z,50.40
2022-08-05T16:56:30.516Z,52.40
2022-08-05T16:58:58.855Z,53.10
2022-08-05T17:01:52.504Z,53.50
2022-08-05T17:04:16.268Z,54.30
2022-08-05T17:06:48.468Z,54.80
2022-08-05T17:09:21.534Z,54.90
2022-08-05T17:11:56.005Z,55.50
2022-08-05T17:14:37.036Z,54.40
2022-08-05T17:17:14.575Z,54.30
2022-08-05T17:19:45.885Z,54.90
2022-08-05T17:22:24.477Z,54.70
2022-08-05T17:24:57.755Z,54.90
2022-08-05T17:27:33.984Z,56.00
2022-08-05T17:30:18.658Z,54.80
2022-08-05T17:32:46.653Z,55.50
2022-08-05T17:35:15.504Z,56.90
2022-08-05T17:37:45.446Z,57.00
2022-08-05T17:40:17.535Z,57.50
2022-08-05T17:42:52.008Z,58.30
2022-08-05T17:45:29.584Z,59.20
2022-08-05T17:48:08.991Z,59.60
2022-08-05T17:50:37.216Z,58.90
2022-08-05T17:53:08.475Z,59.90
2022-08-05T17:55:39.890Z,60.70
2022-08-05T17:58:11.034Z,60.30
2022-08-05T18:00:47.532Z,59.60
2022-08-05T18:03:56.464Z,59.50
2022-08-05T18:06:12.341Z,60.10
2022-08-05T18:08:45.844Z,60.70
2022-08-05T18:11:24.294Z,59.30
2022-08-05T18:13:57.251Z,60.10
2022-08-05T18:16:27.175Z,60.00
2022-08-05T18:18:54.473Z,61.50
2022-08-05T18:21:25.992Z,60.50
2022-08-05T18:23:54.470Z,61.30
2022-08-05T18:26:27.531Z,61.10
2022-08-05T18:28:57.701Z,61.70
2022-08-05T18:31:25.190Z,61.70
2022-08-05T18:33:53.908Z,61.70
2022-08-05T18:36:28.013Z,61.40
2022-08-05T18:38:56.113Z,63.00
2022-08-05T18:41:57.469Z,62.80
2022-08-05T18:44:12.757Z,61.50
2022-08-05T18:46:41.296Z,62.70
2022-08-05T18:49:30.357Z,63.60
2022-08-05T18:52:16.666Z,63.50
2022-08-05T18:54:45.927Z,64.60
2022-08-05T18:57:15.066Z,65.00
2022-08-05T19:00:02.478Z,65.00
2022-08-05T19:02:31.267Z,65.80
2022-08-05T19:05:02.932Z,66.20
2022-08-05T19:07:50.386Z,67.60
2022-08-05T19:10:28.459Z,68.30
2022-08-05T19:12:57.395Z,66.90
2022-08-05T19:15:57.789Z,64.50
2022-08-05T19:18:20.731Z,64.70
2022-08-05T19:20:52.419Z,64.40
2022-08-05T19:24:04.519Z,64.50
2022-08-05T19:26:09.505Z,65.30
2022-08-05T19:28:43.149Z,64.80
2022-08-05T19:31:13.247Z,65.50
2022-08-05T19:33:48.387Z,66.30
2022-08-05T19:36:26.955Z,65.50
2022-08-05T19:39:01.028Z,65.80
2022-08-05T19:42:05.507Z,65.50
2022-08-05T19:44:19.325Z,65.90
2022-08-05T19:46:50.369Z,66.70
2022-08-05T19:49:18.550Z,66.10
2022-08-05T19:52:05.732Z,66.20
2022-08-05T19:54:36.894Z,68.20
2022-08-05T19:57:09.262Z,68.90
2022-08-05T19:59:54.643Z,69.00
2022-08-05T20:02:31.467Z,69.20
2022-08-05T20:04:59.886Z,68.80
2022-08-05T20:07:47.008Z,69.70
2022-08-05T20:10:16.765Z,69.30
2022-08-05T20:12:46.217Z,68.20
2022-08-05T20:15:48.109Z,68.90
2022-08-05T20:18:10.491Z,69.70
2022-08-05T20:20:56.608Z,70.10
2022-08-05T20:23:39.620Z,70.60
2022-08-05T20:26:16.213Z,71.00
2022-08-05T20:28:49.079Z,71.50
2022-08-05T20:31:21.759Z,71.70
2022-08-05T20:33:56.098Z,71.10
2022-08-05T20:36:24.551Z,71.10
2022-08-05T20:38:57.768Z,70.80
2022-08-05T20:41:43.932Z,71.50
2022-08-05T20:44:28.937Z,72.40
2022-08-05T20:47:00.779Z,73.20
2022-08-05T20:49:28.316Z,73.40
2022-08-05T20:51:59.075Z,72.00
2022-08-05T20:54:43.037Z,71.00
2022-08-05T20:57:29.138Z,72.30
2022-08-05T21:00:20.738Z,72.40
2022-08-05T21:02:57.840Z,73.20
2022-08-05T21:05:25.485Z,72.20
2022-08-05T21:08:07.497Z,72.50
2022-08-05T21:10:36.370Z,72.70
2022-08-05T21:13:10.263Z,72.80
2022-08-05T21:15:44.393Z,72.80
2022-08-05T21:18:18.870Z,74.30
2022-08-05T21:20:48.212Z,74.50
2022-08-05T21:23:16.158Z,73.70
2022-08-05T21:25:44.940Z,74.50
2022-08-05T21:28:12.579Z,75.30
2022-08-05T21:30:45.904Z,74.90
2022-08-05T21:33:22.540Z,75.00
2022-08-05T21:35:55.878Z,75.20
2022-08-05T21:38:27.800Z,74.80
2022-08-05T21:40:55.263Z,74.60
2022-08-05T21:43:24.489Z,75.20
2022-08-05T21:45:57.836Z,73.60
2022-08-05T21:48:28.532Z,75.00
2022-08-05T21:50:56.353Z,74.80
2022-08-05T21:53:27.646Z,75.40
2022-08-05T21:56:16.405Z,76.40
2022-08-05T21:58:57.112Z,75.10
2022-08-05T22:01:26.353Z,75.30
2022-08-05T22:03:54.206Z,74.10
2022-08-05T22:06:35.459Z,73.30
2022-08-05T22:09:14.798Z,72.70
2022-08-05T22:11:46.881Z,74.70
2022-08-05T22:14:32.931Z,75.00
2022-08-05T22:17:03.901Z,75.50
2022-08-05T22:20:00.079Z,75.50
2022-08-05T22:22:28.137Z,75.20
2022-08-05T22:25:21.608Z,74.90
2022-08-05T22:28:09.914Z,74.60
2022-08-05T22:30:56.539Z,74.90
2022-08-05T22:33:58.194Z,75.70
2022-08-05T22:36:16.492Z,77.00
2022-08-05T22:38:47.999Z,75.50
2022-08-05T22:41:26.280Z,75.90
2022-08-05T22:44:06.588Z,76.60
2022-08-05T22:46:33.941Z,76.80
2022-08-05T22:49:23.429Z,76.90
2022-08-05T22:52:04.345Z,76.90
2022-08-05T22:54:35.601Z,74.70
2022-08-05T22:57:06.135Z,76.50
2022-08-05T22:59:44.176Z,76.50
2022-08-05T23:02:28.886Z,75.80
2022-08-05T23:05:01.946Z,76.00
2022-08-05T23:07:33.749Z,76.00
2022-08-05T23:10:13.270Z,77.00
2022-08-05T23:12:41.020Z,76.20
2022-08-05T23:15:12.360Z,76.10
2022-08-05T23:18:00.823Z,77.10
2022-08-05T23:20:27.194Z,74.50
2022-08-05T23:22:56.267Z,75.40
2022-08-05T23:25:51.779Z,76.70
2022-08-05T23:28:12.730Z,74.70
2022-08-05T23:30:43.505Z,76.20
2022-08-05T23:33:22.127Z,76.60
2022-08-05T23:35:55.953Z,76.20
2022-08-05T23:38:26.668Z,76.40
2022-08-05T23:40:54.727Z,76.10
2022-08-05T23:43:25.285Z,76.90
2022-08-05T23:46:21.181Z,78.20
2022-08-05T23:48:59.894Z,78.30
2022-08-05T23:52:12.946Z,76.90
2022-08-05T23:54:44.370Z,77.50
2022-08-05T23:57:12.115Z,76.60
